Saturday, December 16, 2017, 9:20 PM EST
Back to Local

KCKB, Harrison/marion Regional

Location: Bridgeport, WV, United States Lat: 39.3
Local Time: 9:20 PM EST ( 2:20 GMT) Lon: -80.217
Time Zone: US/Eastern Elev: 1204 ft

Show me the last for .
Show Decoded

2017-12-16 20:53 METAR KCKB 170153Z 16003KT 10SM CLR 04/M04 A3014 RMK AO2 SLP212 T00441044 =
2017-12-16 19:53 METAR KCKB 170053Z 17003KT 10SM CLR 04/M04 A3013 RMK AO2 SLP209 T00391044 =
2017-12-16 18:53 METAR KCKB 162353Z 18004KT 10SM CLR 05/M04 A3011 RMK AO2 SLP201 T00501044 10083
                 20033 51019 =
2017-12-16 17:53 METAR KCKB 162253Z 21007KT 10SM CLR 04/M04 A3010 RMK AO2 SLP198 T00441044 =
2017-12-16 16:53 METAR KCKB 162153Z 22008KT 10SM CLR 07/M04 A3007 RMK AO2 SLP185 T00671039 =
2017-12-16 15:53 METAR KCKB 162053Z 22009KT 10SM CLR 08/M04 A3005 RMK AO2 SLP180 T00781039 56009
                 =
2017-12-16 14:53 METAR KCKB 161953Z 24011KT 10SM CLR 08/M04 A3006 RMK AO2 SLP180 T00831039 =
2017-12-16 13:53 METAR KCKB 161853Z 24014G20KT 10SM CLR 08/M03 A3007 RMK AO2 SLP184 T00781033 =
2017-12-16 12:53 METAR KCKB 161753Z 24015G19KT 10SM FEW039 07/M03 A3008 RMK AO2 SLP189 T00721033
                 10072 20000 56008 =
2017-12-16 11:53 METAR KCKB 161653Z 21011KT 10SM SCT085 04/M04 A3009 RMK AO2 SLP192 T00441039 =
2017-12-16 10:53 METAR KCKB 161553Z 21011KT 10SM SCT040 BKN120 03/M04 A3010 RMK AO2 SLP197
                 T00281044 =
2017-12-16 09:53 METAR KCKB 161453Z 22010KT 10SM OVC042 02/M05 A3011 RMK AO2 SLP201 T00171050
                 53004 =
2017-12-16 08:53 METAR KCKB 161353Z 20008KT 10SM BKN095 BKN120 01/M06 A3009 RMK AO2 SLP196
                 T00111056 =
2017-12-16 07:53 METAR KCKB 161253Z 23010KT 10SM BKN100 OVC120 01/M06 A3011 RMK AO2 SLP201
                 T00061061 =
2017-12-16 06:53 METAR KCKB 161153Z 20008KT 10SM OVC055 00/M06 A3009 RMK AO2 SLP197 T00001061
                 10000 21011 55000 =
2017-12-16 05:53 METAR KCKB 161053Z AUTO 22008KT 10SM OVC049 M01/M06 A3009 RMK AO2 SLP196
                 T10061061 =
2017-12-16 05:14 METAR KCKB 161014Z AUTO 22009KT 10SM FEW028 OVC055 M01/M07 A3009 RMK AO2
                 T10061067 =
2017-12-16 04:53 METAR KCKB 160953Z AUTO 21008KT 10SM BKN029 BKN034 OVC055 M01/M07 A3008 RMK AO2
                 SLP194 T10061067 =
2017-12-16 03:53 METAR KCKB 160853Z AUTO 22008KT 10SM BKN033 OVC048 M01/M07 A3010 RMK AO2 SLP198
                 T10061072 51005 =
2017-12-16 03:45 METAR KCKB 160845Z AUTO 23007KT 10SM BKN029 BKN049 M01/M07 A3009 RMK AO2
                 T10061072 =
2017-12-16 02:53 METAR KCKB 160753Z AUTO 24010KT 10SM OVC050 M01/M07 A3009 RMK AO2 SLP198
                 T10061072 =
2017-12-16 01:53 METAR KCKB 160653Z AUTO 24009KT 10SM FEW037 OVC050 M01/M08 A3008 RMK AO2 SLP194
                 T10061078 =
2017-12-16 00:53 METAR KCKB 160553Z AUTO 28010G15KT 9SM OVC033 M01/M08 A3008 RMK AO2 SNB28E53
                 SLP193 P0000 60000 T10061078 11006 21006 51016 =
2017-12-15 23:53 METAR KCKB 160453Z AUTO 27008KT 10SM BKN035 OVC045 M01/M07 A3007 RMK AO2 SLP189
                 T10061072 410061028 =
2017-12-15 22:53 METAR KCKB 160353Z AUTO 25012KT 10SM BKN035 OVC044 M01/M07 A3005 RMK AO2 SLP185
                 T10061072 =
2017-12-15 21:53 METAR KCKB 160253Z 25013G18KT 10SM SCT038 OVC050 M01/M08 A3003 RMK AO2 SLP177
                 T10061078 51018 =

Support USWX by starting your Amazon purchase here.